Time;durP1;ratioP1;P1;durP2;ratioP2;P2;SDS_P1;SDS_P2;PMS_P1;PMS_P2;Temp;Humidity;BMP_temperature;BMP_pressure;BME280_temperature;BME280_humidity;BME280_pressure;Samples;Min_cycle;Max_cycle;Signal;HPM_P1;HPM_P2
2024/01/06 00:04:32;;;;;;;21.33;10.07;;;3.90;99.90;;;1.94;100.00;99234.91;10244599;28;98145;-84
2024/01/06 00:09:36;;;;;;;19.80;9.30;;;3.90;99.90;;;2.02;100.00;99229.78;10249669;28;97417;-84
2024/01/06 00:14:43;;;;;;;18.50;9.33;;;3.90;99.90;;;2.09;100.00;99223.03;10240328;28;97408;-84
2024/01/06 00:19:50;;;;;;;24.13;10.67;;;4.00;99.90;;;2.15;100.00;99208.56;10248224;28;97016;-84
2024/01/06 00:24:54;;;;;;;27.50;11.57;;;4.00;99.90;;;2.15;100.00;99208.56;10268774;28;96476;-84
2024/01/06 00:29:57;;;;;;;22.53;10.80;;;4.00;99.90;;;2.15;100.00;99208.56;10255042;28;97857;-83
2024/01/06 00:35:01;;;;;;;24.63;10.03;;;4.00;99.90;;;2.20;100.00;99195.03;10233688;28;97257;-83
2024/01/06 00:40:05;;;;;;;24.97;11.17;;;4.10;99.90;;;2.24;100.00;99199.88;10252255;28;96911;-84
2024/01/06 00:45:09;;;;;;;21.27;11.17;;;4.10;99.90;;;2.21;100.00;99192.28;10256050;28;97161;-83
2024/01/06 00:50:13;;;;;;;25.80;11.30;;;4.10;99.90;;;2.22;100.00;99201.81;10251043;28;97672;-84
2024/01/06 00:55:16;;;;;;;27.57;13.10;;;4.10;99.90;;;2.18;100.00;99195.19;10248240;28;98802;-83
2024/01/06 01:00:20;;;;;;;18.43;9.80;;;4.10;99.90;;;2.13;100.00;99197.38;10236396;28;96612;-83
2024/01/06 01:05:24;;;;;;;22.03;10.50;;;4.00;99.90;;;2.01;100.00;99201.13;10239648;28;96539;-83
2024/01/06 01:10:28;;;;;;;21.27;11.37;;;4.00;99.90;;;1.93;100.00;99199.19;10251258;28;98179;-83
2024/01/06 01:15:31;;;;;;;25.67;10.87;;;3.90;99.90;;;1.85;100.00;99199.03;10251760;28;96367;-84
2024/01/06 01:20:34;;;;;;;25.30;12.03;;;3.80;99.90;;;1.81;100.00;99195.03;10230296;28;96960;-84
2024/01/06 01:25:38;;;;;;;23.27;11.07;;;3.80;99.90;;;1.80;100.00;99191.59;10250934;28;96553;-83
2024/01/06 01:30:42;;;;;;;22.97;11.03;;;3.80;99.90;;;1.91;100.00;99174.06;10263993;28;96829;-83
2024/01/06 01:35:45;;;;;;;25.70;12.90;;;3.80;99.90;;;2.04;100.00;99166.75;10236562;28;96562;-83
2024/01/06 01:40:49;;;;;;;26.40;12.57;;;4.00;99.90;;;2.21;100.00;99176.53;10251937;28;98331;-83
2024/01/06 01:45:54;;;;;;;25.90;12.20;;;4.10;99.90;;;2.41;100.00;99172.13;10268275;28;96545;-85
2024/01/06 01:50:58;;;;;;;28.50;12.27;;;4.30;99.90;;;2.57;100.00;99158.41;10246759;28;96465;-83
2024/01/06 01:56:04;;;;;;;22.47;12.00;;;4.40;99.90;;;2.69;100.00;99154.63;10251826;28;98341;-84
2024/01/06 02:01:09;;;;;;;25.90;13.17;;;4.60;99.90;;;2.80;100.00;99153.63;10228103;28;97694;-84
2024/01/06 02:06:12;;;;;;;23.03;12.13;;;4.70;99.90;;;2.87;100.00;99141.59;10236322;28;96709;-84
2024/01/06 02:11:16;;;;;;;29.07;12.50;;;4.80;99.90;;;2.92;100.00;99142.81;10242256;28;96672;-83
2024/01/06 02:16:19;;;;;;;23.37;12.17;;;4.70;99.90;;;2.99;100.00;99136.97;10251396;28;96677;-84
2024/01/06 02:21:24;;;;;;;24.00;12.13;;;4.90;99.90;;;3.04;100.00;99142.63;10241795;28;96705;-84
2024/01/06 02:26:27;;;;;;;22.77;11.40;;;4.90;99.90;;;3.15;100.00;99139.81;10227768;28;97861;-83
2024/01/06 02:31:31;;;;;;;22.03;11.60;;;5.00;99.90;;;3.24;100.00;99123.19;10243314;28;96690;-83
2024/01/06 02:36:34;;;;;;;22.50;12.07;;;5.10;99.90;;;3.34;100.00;99123.94;10245230;28;97238;-84
2024/01/06 02:41:38;;;;;;;20.10;10.87;;;5.20;99.90;;;3.42;100.00;99123.22;10241833;28;98343;-84
2024/01/06 02:46:42;;;;;;;20.83;10.27;;;5.30;99.90;;;3.48;100.00;99115.56;10227246;28;96592;-83
2024/01/06 02:51:45;;;;;;;24.73;11.10;;;5.30;99.90;;;3.56;100.00;99106.94;10238031;28;98792;-83
2024/01/06 02:56:49;;;;;;;20.67;9.90;;;5.40;99.90;;;3.60;100.00;99108.31;10251492;28;99064;-84
2024/01/06 03:01:52;;;;;;;20.23;10.90;;;5.50;99.90;;;3.67;100.00;99100.63;10247695;28;96618;-84
2024/01/06 03:06:56;;;;;;;25.77;11.40;;;5.50;99.90;;;3.71;100.00;99092.28;10252443;28;96556;-84
2024/01/06 03:12:00;;;;;;;23.43;11.23;;;5.60;99.90;;;3.78;100.00;99084.66;10250878;28;96532;-84
2024/01/06 03:17:04;;;;;;;16.63;9.30;;;5.60;99.90;;;3.82;100.00;99090.41;10234590;28;97550;-84
2024/01/06 03:22:07;;;;;;;23.13;10.80;;;5.70;99.90;;;3.82;100.00;99083.34;10268351;28;96681;-84
2024/01/06 03:27:11;;;;;;;19.50;9.00;;;5.70;99.90;;;3.85;100.00;99085.69;10250052;28;98687;-83
2024/01/06 03:32:14;;;;;;;19.33;9.30;;;5.70;99.90;;;3.82;100.00;99069.38;10247741;28;96618;-84
2024/01/06 03:37:18;;;;;;;20.87;10.93;;;5.70;99.90;;;3.88;100.00;99080.13;10246763;28;97576;-84
2024/01/06 03:42:21;;;;;;;20.23;9.63;;;5.70;99.90;;;3.92;100.00;99086.72;10251259;28;98078;-84
2024/01/06 03:47:25;;;;;;;20.47;10.97;;;5.80;99.90;;;3.92;100.00;99076.22;10250383;28;97545;-84
2024/01/06 03:52:28;;;;;;;17.67;8.90;;;5.80;99.90;;;3.93;100.00;99077.03;10279543;28;98550;-84
2024/01/06 03:57:31;;;;;;;15.20;8.50;;;5.80;99.90;;;3.96;100.00;99082.81;10261618;28;96671;-84
2024/01/06 04:02:35;;;;;;;16.63;9.03;;;5.80;99.90;;;3.98;100.00;99070.34;10237654;28;98192;-84
2024/01/06 04:07:38;;;;;;;17.00;9.00;;;5.90;99.90;;;4.06;100.00;99077.44;10276697;28;98231;-84
2024/01/06 04:12:42;;;;;;;18.90;8.63;;;5.90;99.90;;;4.09;100.00;99079.78;10245210;28;96745;-84
2024/01/06 04:17:49;;;;;;;16.80;8.63;;;6.00;99.90;;;4.14;100.00;99081.94;10232295;28;96645;-84
2024/01/06 04:22:52;;;;;;;24.30;11.23;;;6.00;99.90;;;4.21;100.00;99099.59;10252101;28;97644;-84
2024/01/06 04:27:56;;;;;;;21.00;11.53;;;6.10;99.90;;;4.22;100.00;99087.28;10249939;28;96663;-84
2024/01/06 04:32:59;;;;;;;17.20;9.03;;;6.10;99.90;;;4.20;100.00;99084.81;10246595;28;96576;-84
2024/01/06 04:38:03;;;;;;;20.10;9.90;;;6.10;99.90;;;4.17;100.00;99082.47;10245450;28;97189;-84
2024/01/06 04:43:07;;;;;;;19.07;10.03;;;6.10;99.90;;;4.15;100.00;99092.31;10277757;28;96716;-83
2024/01/06 04:48:10;;;;;;;21.00;11.27;;;6.00;99.90;;;4.14;100.00;99109.09;10246850;28;96693;-83
2024/01/06 04:53:14;;;;;;;21.20;10.83;;;6.00;99.90;;;4.15;100.00;99112.53;10241689;28;96591;-84
2024/01/06 04:58:17;;;;;;;22.07;10.43;;;6.00;99.90;;;4.13;100.00;99098.69;10244727;28;96581;-84
2024/01/06 05:03:21;;;;;;;26.70;12.37;;;6.00;99.90;;;4.16;100.00;99093.16;10238777;28;98046;-84
2024/01/06 05:08:24;;;;;;;22.10;11.53;;;6.00;99.90;;;4.14;100.00;99090.69;10239054;28;96579;-83
2024/01/06 05:13:28;;;;;;;16.80;9.80;;;6.00;99.90;;;4.11;100.00;99079.63;10257034;28;98086;-83
2024/01/06 05:18:31;;;;;;;16.73;8.90;;;6.00;99.90;;;4.12;100.00;99083.91;10260731;28;96718;-84
2024/01/06 05:23:35;;;;;;;19.47;10.00;;;6.00;99.90;;;4.14;100.00;99079.31;10276676;28;96790;-83
2024/01/06 05:28:40;;;;;;;22.50;9.20;;;6.00;99.90;;;4.12;100.00;99071.59;10244904;28;96714;-83
2024/01/06 05:33:43;;;;;;;17.53;9.30;;;6.00;99.90;;;4.15;100.00;99081.81;10267448;28;96914;-83
2024/01/06 05:38:48;;;;;;;18.23;9.57;;;6.00;99.90;;;4.15;100.00;99073.09;10226976;28;98310;-83
2024/01/06 05:43:56;;;;;;;16.63;8.77;;;6.10;99.90;;;4.17;100.00;99079.00;10246633;28;96633;-83
2024/01/06 05:48:59;;;;;;;20.67;9.20;;;6.00;99.90;;;4.16;100.00;99080.00;10241357;28;96627;-84
2024/01/06 05:54:03;;;;;;;18.40;10.17;;;6.00;99.90;;;4.17;100.00;99100.88;10243539;28;97282;-83
2024/01/06 05:59:07;;;;;;;19.10;9.73;;;6.00;99.90;;;4.17;100.00;99095.59;10237964;28;97531;-83
2024/01/06 06:04:11;;;;;;;18.20;8.87;;;6.00;99.90;;;4.21;100.00;99101.41;10236705;28;96634;-83
2024/01/06 06:09:15;;;;;;;18.83;9.33;;;6.10;99.90;;;4.25;100.00;99106.19;10251738;28;96713;-84
2024/01/06 06:14:19;;;;;;;17.53;9.10;;;6.10;99.90;;;4.29;100.00;99104.06;10228329;28;96885;-83
2024/01/06 06:19:22;;;;;;;17.63;9.30;;;6.20;99.90;;;4.34;100.00;99109.69;10257381;28;98229;-85
2024/01/06 06:24:26;;;;;;;16.93;10.03;;;6.20;99.90;;;4.35;100.00;99102.63;10245491;28;96626;-84
2024/01/06 06:29:29;;;;;;;16.13;9.40;;;6.20;99.90;;;4.35;100.00;99110.53;10253495;28;96535;-84
2024/01/06 06:34:33;;;;;;;19.43;9.50;;;6.20;99.90;;;4.35;100.00;99113.97;10253195;28;98322;-84
2024/01/06 06:39:37;;;;;;;15.43;8.47;;;6.20;99.90;;;4.36;100.00;99104.28;10260426;28;98127;-84
2024/01/06 06:44:40;;;;;;;14.47;7.87;;;6.20;99.90;;;4.37;100.00;99111.19;10260564;28;97238;-84
2024/01/06 06:49:44;;;;;;;31.10;13.77;;;6.20;99.90;;;4.36;100.00;99105.09;10243158;28;96752;-84
2024/01/06 06:54:48;;;;;;;22.20;10.53;;;6.20;99.90;;;4.37;100.00;99119.06;10243348;28;98246;-84
2024/01/06 06:59:52;;;;;;;20.27;10.97;;;6.20;99.90;;;4.41;100.00;99113.34;10250390;28;96730;-84
2024/01/06 07:04:56;;;;;;;21.53;11.87;;;6.30;99.90;;;4.42;100.00;99109.75;10283460;28;98709;-83
2024/01/06 07:10:04;;;;;;;23.53;11.00;;;6.30;99.90;;;4.46;100.00;99116.34;10238474;28;96839;-83
2024/01/06 07:15:10;;;;;;;21.33;11.33;;;6.30;99.90;;;4.47;100.00;99117.19;10249887;28;98091;-83
2024/01/06 07:20:14;;;;;;;17.73;9.50;;;6.30;99.90;;;4.49;100.00;99116.03;10250455;28;96953;-83
2024/01/06 07:25:17;;;;;;;15.97;9.00;;;6.30;99.90;;;4.51;100.00;99115.91;10253639;28;96702;-83
2024/01/06 07:30:20;;;;;;;17.83;9.13;;;6.30;99.90;;;4.53;100.00;99106.84;10240957;28;98514;-83
2024/01/06 07:35:24;;;;;;;16.30;8.60;;;6.30;99.90;;;4.55;100.00;99107.50;10251091;28;96951;-83
2024/01/06 07:40:27;;;;;;;17.70;8.43;;;6.40;99.90;;;4.54;100.00;99108.50;10244722;28;96774;-83
2024/01/06 07:45:32;;;;;;;15.03;7.93;;;6.40;99.90;;;4.53;100.00;99106.03;10252867;28;98169;-83
2024/01/06 07:50:35;;;;;;;18.23;8.43;;;6.40;99.90;;;4.55;100.00;99102.25;10247728;28;96947;-83
2024/01/06 07:55:40;;;;;;;12.73;7.30;;;6.40;99.90;;;4.57;100.00;99117.91;10223951;28;97511;-83
2024/01/06 08:00:43;;;;;;;11.43;6.40;;;6.40;99.90;;;4.56;100.00;99111.81;10229729;28;96532;-84
2024/01/06 08:05:48;;;;;;;16.43;7.73;;;6.40;99.90;;;4.56;100.00;99103.94;10231480;28;97251;-84
2024/01/06 08:10:51;;;;;;;12.90;7.33;;;6.40;99.90;;;4.57;100.00;99097.69;10255807;28;96686;-84
2024/01/06 08:15:55;;;;;;;14.23;7.17;;;6.40;99.90;;;4.58;100.00;99103.75;10232490;28;96633;-84
2024/01/06 08:20:58;;;;;;;14.07;7.03;;;6.30;99.90;;;4.56;100.00;99100.47;10224107;28;96579;-84
2024/01/06 08:26:03;;;;;;;13.27;6.83;;;6.30;99.90;;;4.59;100.00;99107.22;10275354;28;96794;-84
2024/01/06 08:31:07;;;;;;;14.20;7.43;;;6.30;99.90;;;4.61;100.00;99113.13;10242266;28;98474;-83
2024/01/06 08:36:11;;;;;;;11.67;6.50;;;6.40;99.90;;;4.61;100.00;99106.06;10277932;28;97254;-84
2024/01/06 08:41:15;;;;;;;12.03;6.60;;;6.40;99.90;;;4.66;100.00;99108.22;10231785;28;98666;-84
2024/01/06 08:46:18;;;;;;;13.50;6.67;;;6.40;99.90;;;4.71;100.00;99119.13;10245312;28;96939;-83
2024/01/06 08:51:23;;;;;;;12.70;6.67;;;6.50;99.90;;;4.75;100.00;99107.31;10278272;28;97124;-84
2024/01/06 08:56:27;;;;;;;10.23;5.70;;;6.60;99.90;;;4.79;100.00;99111.25;10246194;28;96919;-84
2024/01/06 09:01:31;;;;;;;12.73;6.87;;;6.60;99.90;;;4.87;100.00;99126.28;10250418;28;96546;-84
2024/01/06 09:06:35;;;;;;;15.70;7.97;;;6.70;99.90;;;4.89;100.00;99119.03;10234953;28;96770;-84
2024/01/06 09:11:38;;;;;;;13.90;7.53;;;6.60;99.90;;;4.93;100.00;99115.13;10248906;28;96953;-84
2024/01/06 09:16:42;;;;;;;13.43;6.23;;;6.70;99.90;;;4.93;100.00;99112.50;10263023;28;98091;-84
2024/01/06 09:21:46;;;;;;;33.50;12.13;;;6.70;99.90;;;4.97;100.00;99105.91;10255424;28;96451;-84
2024/01/06 09:26:50;;;;;;;14.27;6.97;;;6.80;99.90;;;4.96;100.00;99101.63;10249906;28;96649;-84
2024/01/06 09:31:53;;;;;;;14.70;6.80;;;6.70;99.90;;;4.97;100.00;99104.09;10250775;28;96583;-84
2024/01/06 09:36:57;;;;;;;13.13;7.13;;;6.70;99.90;;;4.96;100.00;99094.56;10266058;28;96569;-84
2024/01/06 09:42:01;;;;;;;15.60;8.00;;;6.80;99.90;;;4.98;100.00;99092.59;10265999;28;96689;-84
2024/01/06 09:47:05;;;;;;;15.00;7.00;;;6.80;99.90;;;4.99;100.00;99086.34;10249325;28;96514;-84
2024/01/06 09:52:20;;;;;;;11.57;6.33;;;6.80;99.90;;;5.01;100.00;99078.28;10239128;28;97455;-83
2024/01/06 09:57:24;;;;;;;10.33;5.60;;;6.80;99.90;;;5.04;100.00;99075.34;10252283;28;96691;-84
2024/01/06 10:02:28;;;;;;;11.23;5.97;;;6.80;99.90;;;5.09;100.00;99075.66;10233530;28;97708;-83
2024/01/06 10:07:31;;;;;;;16.17;7.33;;;6.90;99.90;;;5.13;100.00;99065.66;10281705;28;96584;-84
2024/01/06 10:12:39;;;;;;;20.90;10.53;;;6.90;99.90;;;5.18;100.00;99074.72;10259632;28;97054;-84
2024/01/06 10:17:43;;;;;;;22.57;9.67;;;6.90;99.90;;;5.22;100.00;99086.59;10286631;28;96539;-84
2024/01/06 10:22:47;;;;;;;26.33;12.70;;;7.00;99.90;;;5.29;100.00;99084.13;10284394;28;96462;-84
2024/01/06 10:27:53;;;;;;;19.50;9.47;;;7.10;99.90;;;5.30;100.00;99083.16;10248236;28;96674;-84
2024/01/06 10:32:56;;;;;;;14.73;7.23;;;7.10;99.90;;;5.33;100.00;99077.53;10245941;28;96997;-83
2024/01/06 10:38:00;;;;;;;13.57;8.00;;;7.20;99.90;;;5.41;100.00;99085.47;10240002;28;96840;-84
2024/01/06 10:43:05;;;;;;;14.30;8.00;;;7.20;99.90;;;5.45;100.00;99078.88;10247785;28;96629;-84
2024/01/06 10:48:08;;;;;;;16.10;8.53;;;7.30;99.90;;;5.46;100.00;99072.66;10248708;28;97113;-84
2024/01/06 10:53:14;;;;;;;16.80;7.73;;;7.30;99.90;;;5.45;100.00;99055.16;10246457;28;96476;-84
2024/01/06 10:58:19;;;;;;;11.43;7.03;;;7.30;99.90;;;5.43;100.00;99051.88;10255367;28;96590;-84
2024/01/06 11:03:24;;;;;;;12.50;6.83;;;7.20;99.90;;;5.40;100.00;99036.41;10230447;28;96587;-84
2024/01/06 11:08:30;;;;;;;15.77;8.73;;;7.20;99.90;;;5.38;100.00;99026.00;10231654;28;96515;-84
2024/01/06 11:13:33;;;;;;;15.47;8.50;;;7.10;99.90;;;5.41;100.00;99024.06;10248691;28;96604;-84
2024/01/06 11:18:40;;;;;;;13.43;7.83;;;7.20;99.90;;;5.37;100.00;99010.38;10253521;28;96569;-85
2024/01/06 11:23:44;;;;;;;14.33;7.43;;;7.20;99.90;;;5.32;100.00;98996.88;10243912;28;97891;-85
2024/01/06 11:28:50;;;;;;;12.10;6.70;;;7.10;99.90;;;5.30;100.00;98986.50;10246403;28;97719;-85
2024/01/06 11:33:54;;;;;;;14.40;7.40;;;7.10;99.90;;;5.30;100.00;98978.59;10253056;28;96524;-85
2024/01/06 11:38:59;;;;;;;21.77;9.97;;;7.10;99.90;;;5.28;100.00;98970.06;10252821;28;97803;-85
2024/01/06 11:44:04;;;;;;;23.47;13.20;;;7.10;99.90;;;5.34;100.00;98965.94;10254432;28;97595;-85
2024/01/06 11:49:10;;;;;;;14.47;8.90;;;7.10;99.90;;;5.37;100.00;98947.16;10285664;28;98474;-86
2024/01/06 11:54:14;;;;;;;15.17;8.33;;;7.20;99.90;;;5.43;100.00;98935.13;10253645;28;96558;-85
2024/01/06 11:59:17;;;;;;;15.07;8.23;;;7.20;99.90;;;5.48;100.00;98935.47;10252983;28;98166;-85
2024/01/06 12:04:22;;;;;;;13.87;7.60;;;7.30;99.90;;;5.52;100.00;98937.59;10252857;28;96762;-85
2024/01/06 12:09:26;;;;;;;15.33;8.03;;;7.30;99.90;;;5.52;100.00;98921.78;10270685;28;96717;-85
2024/01/06 12:14:30;;;;;;;21.40;10.23;;;7.30;99.90;;;5.55;100.00;98924.09;10253004;28;96762;-85
2024/01/06 12:19:34;;;;;;;16.20;8.70;;;7.40;99.90;;;5.57;100.00;98922.09;10296874;28;98644;-85
2024/01/06 12:24:42;;;;;;;13.87;7.80;;;7.40;99.90;;;5.57;100.00;98918.63;10258504;28;96653;-84
2024/01/06 12:29:46;;;;;;;20.87;9.97;;;7.40;99.90;;;5.56;100.00;98911.72;10237440;28;96384;-84
2024/01/06 12:34:50;;;;;;;15.60;9.50;;;7.40;99.90;;;5.53;100.00;98923.44;10253580;28;96629;-84
2024/01/06 12:39:57;;;;;;;19.77;8.90;;;7.40;99.90;;;5.53;100.00;98909.44;10252976;28;96611;-84
2024/01/06 12:45:01;;;;;;;20.10;10.00;;;7.40;99.90;;;5.53;100.00;98910.25;10283678;28;97715;-85
2024/01/06 12:50:06;;;;;;;30.37;12.10;;;7.40;99.90;;;5.57;100.00;98922.09;10256533;28;96635;-85
2024/01/06 12:55:09;;;;;;;34.10;15.23;;;7.40;99.90;;;5.55;100.00;98918.81;10229933;28;97994;-84
2024/01/06 13:00:14;;;;;;;23.93;11.07;;;7.40;99.90;;;5.56;100.00;98920.44;10254704;28;97756;-84
2024/01/06 13:05:19;;;;;;;22.23;10.20;;;7.40;99.90;;;5.56;100.00;98920.44;10243762;28;96599;-84
2024/01/06 13:10:23;;;;;;;21.67;10.20;;;7.40;99.90;;;5.52;100.00;98929.69;10243691;28;98168;-84
2024/01/06 13:15:27;;;;;;;30.50;17.30;;;7.40;99.90;;;5.55;100.00;98939.06;10228950;28;96656;-85
2024/01/06 13:20:32;;;;;;;19.50;11.90;;;7.40;99.90;;;5.53;100.00;98931.34;10250655;28;96573;-85
2024/01/06 13:25:35;;;;;;;19.93;11.90;;;7.40;99.90;;;5.53;100.00;98930.53;10251979;28;96369;-85
2024/01/06 13:30:40;;;;;;;20.67;10.27;;;7.40;99.90;;;5.56;100.00;98930.19;10249486;28;96679;-85
2024/01/06 13:35:43;;;;;;;35.87;17.93;;;7.40;99.90;;;5.60;100.00;98931.50;10245877;28;96766;-85
2024/01/06 13:40:47;;;;;;;20.53;10.90;;;7.40;99.90;;;5.61;100.00;98923.41;10273167;28;96756;-85
2024/01/06 13:45:50;;;;;;;22.53;11.63;;;7.40;99.90;;;5.66;100.00;98927.38;10237820;28;96690;-85
2024/01/06 13:50:54;;;;;;;25.87;13.60;;;7.50;99.90;;;5.66;100.00;98925.56;10250609;28;96555;-85
2024/01/06 13:55:57;;;;;;;22.20;10.93;;;7.50;99.90;;;5.67;100.00;98929.00;10233219;28;96516;-85
2024/01/06 14:01:02;;;;;;;27.37;13.93;;;7.50;99.90;;;5.68;100.00;98928.00;10246598;28;96701;-85
2024/01/06 14:06:07;;;;;;;24.87;14.10;;;7.50;99.90;;;5.71;100.00;98925.88;10281493;28;96728;-85
2024/01/06 14:11:10;;;;;;;19.10;10.73;;;7.50;99.90;;;5.72;100.00;98916.16;10232892;28;96752;-86
2024/01/06 14:16:17;;;;;;;24.20;12.40;;;7.50;99.90;;;5.68;100.00;98906.94;10249493;28;96509;-85
2024/01/06 14:21:22;;;;;;;29.93;14.80;;;7.50;99.90;;;5.62;100.00;98903.97;10261913;28;98121;-85
2024/01/06 14:26:25;;;;;;;27.63;14.77;;;7.40;99.90;;;5.62;100.00;98897.88;10251418;28;96591;-85
2024/01/06 14:31:29;;;;;;;32.63;18.87;;;7.40;99.90;;;5.67;100.00;98905.28;10248143;28;96669;-85
2024/01/06 14:36:32;;;;;;;26.60;14.73;;;7.50;99.90;;;5.66;100.00;98893.13;10252705;28;96633;-85
2024/01/06 14:41:36;;;;;;;22.87;12.03;;;7.40;99.90;;;5.67;100.00;98892.13;10246518;28;96692;-85
2024/01/06 14:46:41;;;;;;;22.73;11.27;;;7.40;99.90;;;5.68;100.00;98899.03;10248735;28;96554;-85
2024/01/06 14:51:45;;;;;;;21.90;10.83;;;7.40;99.90;;;5.69;100.00;98913.84;10253558;28;96544;-85
2024/01/06 14:56:50;;;;;;;21.63;10.90;;;7.50;99.90;;;5.70;100.00;98926.03;10255465;28;96778;-85
2024/01/06 15:01:53;;;;;;;20.07;10.77;;;7.50;99.90;;;5.72;100.00;98921.44;10255121;28;98044;-86
2024/01/06 15:06:57;;;;;;;22.70;10.77;;;7.50;99.90;;;5.69;100.00;98908.56;10254125;28;96628;-86
2024/01/06 15:12:01;;;;;;;25.10;11.80;;;7.50;99.90;;;5.70;100.00;98910.22;10256216;28;96565;-86
2024/01/06 15:17:04;;;;;;;23.67;12.50;;;7.50;99.90;;;5.74;100.00;98911.53;10230998;28;96608;-86
2024/01/06 15:22:08;;;;;;;18.50;9.80;;;7.50;99.90;;;5.73;100.00;98905.44;10255722;28;96453;-87
2024/01/06 15:27:11;;;;;;;30.87;14.27;;;7.50;99.90;;;5.76;100.00;98899.03;10255992;28;96516;-86
2024/01/06 15:32:15;;;;;;;37.33;17.27;;;7.50;99.90;;;5.74;100.00;98898.34;10285978;28;96632;-87
2024/01/06 15:37:18;;;;;;;45.60;19.60;;;7.60;99.90;;;5.76;100.00;98891.13;10294885;28;97626;-86
2024/01/06 15:42:22;;;;;;;34.87;17.80;;;7.60;99.90;;;5.78;100.00;98881.22;10233345;28;96602;-86
2024/01/06 15:47:26;;;;;;;54.40;22.07;;;7.60;99.90;;;5.78;100.00;98878.59;10224906;28;96554;-86
2024/01/06 15:52:30;;;;;;;37.87;20.40;;;7.60;99.90;;;5.79;100.00;98878.41;10223902;28;96502;-86
2024/01/06 15:57:34;;;;;;;31.33;15.37;;;7.60;99.90;;;5.78;100.00;98875.94;10250156;28;96565;-86
2024/01/06 16:02:38;;;;;;;28.73;12.97;;;7.60;99.90;;;5.81;100.00;98880.88;10221653;28;97206;-86
2024/01/06 16:07:42;;;;;;;22.27;12.27;;;7.60;99.90;;;5.82;100.00;98877.25;10253931;28;96559;-87
2024/01/06 16:12:45;;;;;;;21.13;11.57;;;7.60;99.90;;;5.81;100.00;98872.94;10253700;28;96516;-87
2024/01/06 16:17:49;;;;;;;30.63;13.53;;;7.60;99.90;;;5.84;100.00;98877.91;10285762;28;96789;-87
2024/01/06 16:22:54;;;;;;;28.40;11.50;;;7.60;99.90;;;5.84;100.00;98877.91;10253103;28;96599;-87
2024/01/06 16:27:57;;;;;;;25.00;11.57;;;7.70;99.90;;;5.84;100.00;98877.91;10252488;28;96468;-87
2024/01/06 16:33:01;;;;;;;29.77;14.40;;;7.70;99.90;;;5.82;100.00;98879.91;10252340;28;96712;-87
2024/01/06 16:38:05;;;;;;;22.13;10.90;;;7.70;99.90;;;5.84;100.00;98875.28;10289519;28;96883;-87
2024/01/06 16:43:09;;;;;;;25.10;12.00;;;7.70;99.90;;;5.83;100.00;98871.00;10252542;28;96469;-87
2024/01/06 16:48:12;;;;;;;23.80;12.03;;;7.70;99.90;;;5.78;100.00;98863.59;10259115;28;96531;-87
2024/01/06 16:53:17;;;;;;;23.37;11.53;;;7.60;99.90;;;5.80;100.00;98863.41;10264783;28;96721;-87
2024/01/06 16:58:21;;;;;;;19.70;11.50;;;7.60;99.90;;;5.81;100.00;98871.13;10251977;28;96541;-87
2024/01/06 17:03:24;;;;;;;19.13;10.50;;;7.60;99.90;;;5.81;100.00;98865.88;10238093;28;96684;-87
2024/01/06 17:08:28;;;;;;;33.13;15.23;;;7.60;99.90;;;5.83;100.00;98863.09;10252191;28;98349;-87
2024/01/06 17:13:31;;;;;;;35.47;19.27;;;7.60;99.90;;;5.80;100.00;98855.50;10249277;28;96575;-87
2024/01/06 17:18:35;;;;;;;45.40;25.83;;;7.60;99.90;;;5.83;100.00;98855.19;10219940;28;97134;-87
2024/01/06 17:23:38;;;;;;;39.93;22.30;;;7.60;99.90;;;5.84;100.00;98864.72;10218047;28;96624;-87
2024/01/06 17:28:42;;;;;;;53.87;29.50;;;7.60;99.90;;;5.84;100.00;98870.81;10212219;28;96474;-87
2024/01/06 17:33:45;;;;;;;42.17;22.77;;;7.60;99.90;;;5.86;100.00;98874.09;10212328;28;96473;-87
2024/01/06 17:38:49;;;;;;;32.77;17.60;;;7.60;99.90;;;5.86;100.00;98860.91;10258220;28;96569;-87
2024/01/06 17:43:55;;;;;;;48.73;20.80;;;7.60;99.90;;;5.85;100.00;98856.63;10250731;28;97208;-87
2024/01/06 17:48:59;;;;;;;33.47;17.23;;;7.60;99.90;;;5.85;100.00;98861.91;10253153;28;96444;-86
2024/01/06 17:54:03;;;;;;;36.53;17.97;;;7.70;99.90;;;5.87;100.00;98867.00;10255994;28;96598;-87
2024/01/06 17:59:07;;;;;;;33.30;15.97;;;7.70;99.90;;;5.85;100.00;98866.38;10251941;28;96437;-87
2024/01/06 18:04:10;;;;;;;34.60;15.73;;;7.70;99.90;;;5.89;100.00;98862.41;10249789;28;96500;-87
2024/01/06 18:09:19;;;;;;;46.23;22.03;;;7.70;99.90;;;5.88;100.00;98856.31;10249900;28;96483;-87
2024/01/06 18:14:23;;;;;;;40.70;18.33;;;7.70;99.90;;;5.88;100.00;98853.69;10248960;28;96593;-87
2024/01/06 18:19:26;;;;;;;27.77;13.87;;;7.70;99.90;;;5.89;100.00;98857.13;10251337;28;96413;-87
2024/01/06 18:24:31;;;;;;;31.07;13.87;;;7.70;99.90;;;5.88;100.00;98851.03;10249954;28;96369;-87
2024/01/06 18:29:36;;;;;;;34.70;16.07;;;7.70;99.90;;;5.89;100.00;98854.50;10249345;28;96596;-87
2024/01/06 18:34:44;;;;;;;36.07;17.93;;;7.70;99.90;;;5.88;100.00;98856.31;10247041;28;96601;-87
2024/01/06 18:39:48;;;;;;;32.77;15.07;;;7.70;99.90;;;5.86;100.00;98855.63;10227145;28;98020;-87
2024/01/06 18:44:52;;;;;;;37.20;20.70;;;7.70;99.90;;;5.88;100.00;98850.22;10271714;28;96648;-87
2024/01/06 18:49:56;;;;;;;37.07;19.30;;;7.70;99.90;;;5.85;100.00;98843.44;10230734;28;96583;-87
2024/01/06 18:55:01;;;;;;;29.17;14.57;;;7.70;99.90;;;5.86;100.00;98845.09;10247290;28;96689;-87
2024/01/06 19:00:07;;;;;;;22.57;11.70;;;7.70;99.90;;;5.86;100.00;98842.44;10247335;28;96720;-87
2024/01/06 19:05:11;;;;;;;24.80;13.03;;;7.70;99.90;;;5.86;100.00;98841.63;10277094;28;96709;-87
2024/01/06 19:10:15;;;;;;;27.57;14.63;;;7.70;99.90;;;5.84;100.00;98831.28;10247595;28;97033;-87
2024/01/06 19:15:19;;;;;;;29.17;14.23;;;7.60;99.90;;;5.83;100.00;98832.25;10242031;28;96464;-87
2024/01/06 19:20:23;;;;;;;29.37;13.27;;;7.60;99.90;;;5.84;100.00;98828.63;10245512;28;97663;-87
2024/01/06 19:25:27;;;;;;;52.60;20.87;;;7.60;99.90;;;5.84;100.00;98835.72;10248107;28;96435;-87
2024/01/06 19:30:31;;;;;;;29.57;13.83;;;7.60;99.90;;;5.85;100.00;98818.91;10245972;28;96904;-87
2024/01/06 19:35:34;;;;;;;35.03;15.37;;;7.60;99.90;;;5.84;100.00;98819.91;10232488;28;96819;-88
2024/01/06 19:40:38;;;;;;;33.43;15.57;;;7.60;99.90;;;5.84;100.00;98814.63;10237855;28;97406;-87
2024/01/06 19:45:42;;;;;;;34.63;16.20;;;7.60;99.90;;;5.84;100.00;98819.91;10251312;28;96587;-88
2024/01/06 19:50:46;;;;;;;28.97;13.97;;;7.60;99.90;;;5.86;100.00;98815.28;10251369;28;96620;-87
2024/01/06 19:55:50;;;;;;;33.00;16.90;;;7.60;99.90;;;5.85;100.00;98813.63;10240435;28;96544;-87
2024/01/06 20:00:53;;;;;;;31.37;15.80;;;7.60;99.90;;;5.86;100.00;98815.28;10233266;28;97197;-88
2024/01/06 20:05:57;;;;;;;28.97;14.87;;;7.60;99.90;;;5.85;100.00;98808.38;10251697;28;96518;-87
2024/01/06 20:11:01;;;;;;;21.53;11.93;;;7.60;99.90;;;5.84;100.00;98809.34;10234964;28;97734;-87
2024/01/06 20:16:05;;;;;;;27.83;13.10;;;7.60;99.90;;;5.87;100.00;98807.19;10265788;28;96661;-87
2024/01/06 20:21:12;;;;;;;26.23;12.53;;;7.70;99.90;;;5.85;100.00;98803.91;10249982;28;96517;-87
2024/01/06 20:26:17;;;;;;;25.30;13.40;;;7.60;99.90;;;5.84;100.00;98799.63;10286586;28;96619;-87
2024/01/06 20:31:20;;;;;;;29.63;13.60;;;7.60;99.90;;;5.86;100.00;98799.44;10251758;28;97065;-87
2024/01/06 20:36:24;;;;;;;22.50;11.63;;;7.60;99.90;;;5.86;100.00;98786.28;10239033;28;96820;-86
2024/01/06 20:41:28;;;;;;;22.63;10.80;;;7.60;99.90;;;5.86;100.00;98787.09;10237311;28;96884;-87
2024/01/06 20:46:31;;;;;;;26.13;13.47;;;7.70;99.90;;;5.90;100.00;98788.41;10250048;28;96466;-87
2024/01/06 20:51:35;;;;;;;26.80;13.20;;;7.70;99.90;;;5.89;100.00;98778.03;10251153;28;96569;-87
2024/01/06 20:56:39;;;;;;;27.07;12.97;;;7.70;99.90;;;5.89;100.00;98783.31;10271017;28;96915;-87